Terminal Aerodrome Forecast
Issued by NWS St Louis, MO

Home | Current Version | Previous Version | Text Only | Print | Product List | Glossary On
Versions: 1 2 3 4 5 6 7 8 9 10 11 12 13
000
FTUS43 KLSX 202300
TAFCOU
TAF
KCOU 202333Z 2100/2124 18006KT P6SM FEW150 BKN250
     FM210900 19006KT P6SM VCSH FEW060 SCT150
     FM211500 24008KT 5SM -SHRA VCTS SCT060CB BKN120=

USA.gov is the U.S. government's official web portal to all federal, state and local government web resources and services.